Zieglerville, Pennsylvania
Current Conditions -  °F | °C
As of 10:54 PM on Saturday 24 Jan 2015 (Local Time) from KPTW Reporting Station
Overcast Overcast  
Wind Chill: 24°   Ceiling: 7500
Heat Index: 33°   Visibility: 10mi
Dew Point: 24°   Wind: 12mph
Humidity: 70%   Direction: 290°WNW
Pressure: 29.55"   Gusts: 20mph
Location:  40.28°N, 75.48°W
Report Text: KPTW 250354Z AUTO 29010G17KT 10SM SCT034 OVC075 01/M04 A2955 RMK AO2 SLP007 T00061044
Loading
Personal Weather Stations






























Interactive Weather Map New forecast layout! Learn more

10-Day Weather Forecast

Advertisements
Track Severe Weather on mobile